createdAt,value
2018-07-31T00:00:56.956Z,20.05
2018-07-31T00:03:28.123Z,20.11
2018-07-31T00:05:59.350Z,20.03
2018-07-31T00:08:30.592Z,20.01
2018-07-31T00:11:01.795Z,19.94
2018-07-31T00:13:32.770Z,19.93
2018-07-31T00:16:03.963Z,19.91
2018-07-31T00:18:35.215Z,19.99
2018-07-31T00:21:06.536Z,19.93
2018-07-31T00:23:38.720Z,19.83
2018-07-31T00:26:09.731Z,19.87
2018-07-31T00:28:41.089Z,19.78
2018-07-31T00:31:12.539Z,19.81
2018-07-31T00:33:43.668Z,19.73
2018-07-31T00:36:14.946Z,19.70
2018-07-31T00:38:45.969Z,19.69
2018-07-31T00:41:16.956Z,19.59
2018-07-31T00:43:48.391Z,19.56
2018-07-31T00:46:19.604Z,19.50
2018-07-31T00:48:50.725Z,19.46
2018-07-31T00:51:21.847Z,19.47
2018-07-31T00:53:52.999Z,19.37
2018-07-31T00:56:24.021Z,19.45
2018-07-31T00:58:55.000Z,19.49
2018-07-31T01:01:26.149Z,19.53
2018-07-31T01:03:57.229Z,19.26
2018-07-31T01:06:33.404Z,19.25
2018-07-31T01:09:04.701Z,19.31
2018-07-31T01:11:35.731Z,19.37
2018-07-31T01:14:07.789Z,19.23
2018-07-31T01:16:40.646Z,19.30
2018-07-31T01:19:12.342Z,19.24
2018-07-31T01:21:43.535Z,19.26
2018-07-31T01:24:14.833Z,19.24
2018-07-31T01:26:46.115Z,19.32
2018-07-31T01:29:17.224Z,19.25
2018-07-31T01:31:48.244Z,19.24
2018-07-31T01:34:19.771Z,19.19
2018-07-31T01:36:50.853Z,19.32
2018-07-31T01:39:24.539Z,19.28
2018-07-31T01:41:55.646Z,19.28
2018-07-31T01:44:26.707Z,19.16
2018-07-31T01:46:58.005Z,19.15
2018-07-31T01:49:29.119Z,18.95
2018-07-31T01:52:00.280Z,19.08
2018-07-31T01:54:31.878Z,18.94
2018-07-31T01:57:03.124Z,18.97
2018-07-31T01:59:34.289Z,18.90
2018-07-31T02:02:05.997Z,18.89
2018-07-31T02:04:37.218Z,18.80
2018-07-31T02:07:08.465Z,18.76
2018-07-31T02:09:39.821Z,18.75
2018-07-31T02:12:11.204Z,18.65
2018-07-31T02:14:42.082Z,18.71
2018-07-31T02:17:13.254Z,18.75
2018-07-31T02:19:44.498Z,18.46
2018-07-31T02:22:15.722Z,18.72
2018-07-31T02:24:46.643Z,18.60
2018-07-31T02:27:17.717Z,18.63
2018-07-31T02:29:54.131Z,18.65
2018-07-31T02:32:25.396Z,18.69
2018-07-31T02:34:56.721Z,18.74
2018-07-31T02:37:28.075Z,18.60
2018-07-31T02:39:59.271Z,18.53
2018-07-31T02:42:30.650Z,18.60
2018-07-31T02:45:02.976Z,18.49
2018-07-31T02:47:33.838Z,18.47
2018-07-31T02:50:04.927Z,18.18
2018-07-31T02:52:35.997Z,18.44
2018-07-31T02:55:07.863Z,18.49
2018-07-31T02:57:40.239Z,18.43
2018-07-31T03:00:12.211Z,18.26
2018-07-31T03:02:43.856Z,18.28
2018-07-31T03:05:14.953Z,18.23
2018-07-31T03:07:46.104Z,18.18
2018-07-31T03:10:17.197Z,18.18
2018-07-31T03:12:48.475Z,18.08
2018-07-31T03:15:19.881Z,18.22
2018-07-31T03:17:51.015Z,18.09
2018-07-31T03:20:22.079Z,18.20
2018-07-31T03:22:53.396Z,18.18
2018-07-31T03:25:24.554Z,18.17
2018-07-31T03:27:55.829Z,18.09
2018-07-31T03:30:28.007Z,18.00
2018-07-31T03:32:59.179Z,18.10
2018-07-31T03:35:30.959Z,18.24
2018-07-31T03:38:02.684Z,18.15
2018-07-31T03:40:34.060Z,18.11
2018-07-31T03:43:06.045Z,18.13
2018-07-31T03:45:37.416Z,18.23
2018-07-31T03:48:09.586Z,18.18
2018-07-31T03:50:40.758Z,18.14
2018-07-31T03:53:12.991Z,18.14
2018-07-31T03:55:44.171Z,18.16
2018-07-31T03:58:15.514Z,18.21
2018-07-31T04:00:46.778Z,18.07
2018-07-31T04:03:17.873Z,18.18
2018-07-31T04:05:49.261Z,18.15
2018-07-31T04:08:20.358Z,18.13
2018-07-31T04:10:51.812Z,18.20
2018-07-31T04:13:22.955Z,18.24
2018-07-31T04:15:54.688Z,18.18
2018-07-31T04:18:25.815Z,17.99
2018-07-31T04:20:57.350Z,18.14
2018-07-31T04:23:28.541Z,18.27
2018-07-31T04:26:00.099Z,18.55
2018-07-31T04:28:31.507Z,18.37
2018-07-31T04:31:02.800Z,18.22
2018-07-31T04:33:34.024Z,18.52
2018-07-31T04:36:05.307Z,18.57
2018-07-31T04:38:36.356Z,18.53
2018-07-31T04:41:07.482Z,18.54
2018-07-31T04:43:38.536Z,18.65
2018-07-31T04:46:09.996Z,18.62
2018-07-31T04:48:41.145Z,18.85
2018-07-31T04:51:12.282Z,18.81
2018-07-31T04:53:43.460Z,18.93
2018-07-31T04:56:15.448Z,19.07
2018-07-31T04:58:47.722Z,19.16
2018-07-31T05:01:18.831Z,19.18
2018-07-31T05:03:49.844Z,19.25
2018-07-31T05:06:20.938Z,19.36
2018-07-31T05:08:52.111Z,19.37
2018-07-31T05:11:23.364Z,19.39
2018-07-31T05:13:54.513Z,19.51
2018-07-31T05:16:25.849Z,19.56
2018-07-31T05:18:57.399Z,19.67
2018-07-31T05:21:28.735Z,19.77
2018-07-31T05:24:00.028Z,19.91
2018-07-31T05:26:31.306Z,20.06
2018-07-31T05:29:02.524Z,20.11
2018-07-31T05:31:33.569Z,20.43
2018-07-31T05:34:05.629Z,20.52
2018-07-31T05:36:36.886Z,20.61
2018-07-31T05:39:10.640Z,20.72
2018-07-31T05:41:43.784Z,20.68
2018-07-31T05:44:14.877Z,21.06
2018-07-31T05:46:48.665Z,21.23
2018-07-31T05:49:20.761Z,21.27
2018-07-31T05:51:51.933Z,21.23
2018-07-31T05:54:23.195Z,21.27
2018-07-31T05:56:54.267Z,21.26
2018-07-31T05:59:25.544Z,21.60
2018-07-31T06:01:56.916Z,21.78
2018-07-31T06:04:29.489Z,21.89
2018-07-31T06:07:00.936Z,22.27
2018-07-31T06:09:32.191Z,22.28
2018-07-31T06:12:04.470Z,22.48
2018-07-31T06:14:35.697Z,22.65
2018-07-31T06:17:06.651Z,22.79
2018-07-31T06:19:37.764Z,22.68
2018-07-31T06:22:08.996Z,22.94
2018-07-31T06:24:40.253Z,23.11
2018-07-31T06:27:11.499Z,23.25
2018-07-31T06:29:42.620Z,23.32
2018-07-31T06:32:13.787Z,23.52
2018-07-31T06:34:44.972Z,23.72
2018-07-31T06:37:16.242Z,23.88
2018-07-31T06:39:47.230Z,24.24
2018-07-31T06:42:18.697Z,24.55
2018-07-31T06:44:49.713Z,24.49
2018-07-31T06:47:20.703Z,24.46
2018-07-31T06:49:51.717Z,24.73
2018-07-31T06:52:28.877Z,24.92
2018-07-31T06:55:02.616Z,25.01
2018-07-31T06:57:36.787Z,25.34
2018-07-31T07:00:08.036Z,25.57
2018-07-31T07:02:39.248Z,25.75
2018-07-31T07:05:10.286Z,26.08
2018-07-31T07:07:41.223Z,26.12
2018-07-31T07:10:14.031Z,25.85
2018-07-31T07:12:46.034Z,26.09
2018-07-31T07:15:17.434Z,26.15
2018-07-31T07:17:48.497Z,26.02
2018-07-31T07:20:19.535Z,26.06
2018-07-31T07:22:50.742Z,26.56
2018-07-31T07:25:23.851Z,26.69
2018-07-31T07:27:54.883Z,26.83
2018-07-31T07:30:30.774Z,26.97
2018-07-31T07:33:03.711Z,27.05
2018-07-31T07:35:35.265Z,27.42
2018-07-31T07:38:07.074Z,27.52
2018-07-31T07:40:38.603Z,27.67
2018-07-31T07:43:14.559Z,27.76
2018-07-31T07:45:45.736Z,27.90
2018-07-31T07:48:16.840Z,28.00
2018-07-31T07:50:48.335Z,28.00
2018-07-31T07:53:19.540Z,28.27
2018-07-31T07:55:50.799Z,28.45
2018-07-31T07:58:22.042Z,28.53
2018-07-31T08:00:58.254Z,28.60
2018-07-31T08:03:29.313Z,28.69
2018-07-31T08:06:00.519Z,28.68
2018-07-31T08:08:32.432Z,28.77
2018-07-31T08:11:03.402Z,28.88
2018-07-31T08:13:34.501Z,28.93
2018-07-31T08:16:05.491Z,28.92
2018-07-31T08:18:36.611Z,29.00
2018-07-31T08:21:08.651Z,29.19
2018-07-31T08:23:39.857Z,29.13
2018-07-31T08:26:10.978Z,28.97
2018-07-31T08:28:42.090Z,29.31
2018-07-31T08:31:13.384Z,29.42
2018-07-31T08:33:44.496Z,29.37
2018-07-31T08:36:15.724Z,29.65
2018-07-31T08:38:46.782Z,29.71
2018-07-31T08:41:18.604Z,29.83
2018-07-31T08:43:49.691Z,29.78
2018-07-31T08:46:21.983Z,29.86
2018-07-31T08:48:54.224Z,29.90
2018-07-31T08:51:25.520Z,30.07
2018-07-31T08:53:56.664Z,30.27
2018-07-31T08:56:27.851Z,30.29
2018-07-31T08:58:59.060Z,30.41
2018-07-31T09:01:30.130Z,30.45
2018-07-31T09:04:01.317Z,30.36
2018-07-31T09:06:32.367Z,30.31
2018-07-31T09:09:03.595Z,30.37
2018-07-31T09:11:34.742Z,30.45
2018-07-31T09:14:07.074Z,30.55
2018-07-31T09:16:38.876Z,30.47
2018-07-31T09:19:09.931Z,30.51
2018-07-31T09:21:41.320Z,30.68
2018-07-31T09:24:12.361Z,30.78
2018-07-31T09:26:43.476Z,30.88
2018-07-31T09:29:14.509Z,31.11
2018-07-31T09:31:45.707Z,31.08
2018-07-31T09:34:18.332Z,31.11
2018-07-31T09:36:49.850Z,30.89
2018-07-31T09:39:21.375Z,30.98
2018-07-31T09:41:52.482Z,31.18
2018-07-31T09:44:23.587Z,31.43
2018-07-31T09:46:54.744Z,31.56
2018-07-31T09:49:25.870Z,31.22
2018-07-31T09:51:57.084Z,31.20
2018-07-31T09:54:28.432Z,31.40
2018-07-31T09:56:59.450Z,31.65
2018-07-31T09:59:30.753Z,31.43
2018-07-31T10:02:01.969Z,31.64
2018-07-31T10:04:33.146Z,31.78
2018-07-31T10:07:04.162Z,31.67
2018-07-31T10:09:35.464Z,31.53
2018-07-31T10:12:06.566Z,31.19
2018-07-31T10:14:37.526Z,31.18
2018-07-31T10:17:08.597Z,31.74
2018-07-31T10:19:39.703Z,31.83
2018-07-31T10:22:10.811Z,31.85
2018-07-31T10:24:42.190Z,32.06
2018-07-31T10:27:13.302Z,31.97
2018-07-31T10:29:44.392Z,31.78
2018-07-31T10:32:15.599Z,31.99
2018-07-31T10:34:46.536Z,31.97
2018-07-31T10:37:17.755Z,32.16
2018-07-31T10:39:48.859Z,31.96
2018-07-31T10:42:20.144Z,32.19
2018-07-31T10:44:51.307Z,32.35
2018-07-31T10:47:22.476Z,32.61
2018-07-31T10:49:53.708Z,32.75
2018-07-31T10:52:28.305Z,32.74
2018-07-31T10:54:59.797Z,32.63
2018-07-31T10:57:31.134Z,32.78
2018-07-31T11:00:06.776Z,32.86
2018-07-31T11:14:42.756Z,33.13
2018-07-31T11:17:14.331Z,33.03
2018-07-31T11:19:50.544Z,33.26
2018-07-31T11:22:21.537Z,33.20
2018-07-31T11:24:53.091Z,32.92
2018-07-31T11:27:24.080Z,31.99
2018-07-31T11:29:55.040Z,31.86
2018-07-31T11:32:28.783Z,31.85
2018-07-31T11:35:04.589Z,32.22
2018-07-31T11:37:47.189Z,31.97
2018-07-31T11:40:20.459Z,31.86
2018-07-31T11:42:51.776Z,32.17
2018-07-31T11:45:22.870Z,32.30
2018-07-31T11:47:54.312Z,32.69
2018-07-31T11:50:25.604Z,32.96
2018-07-31T11:52:57.491Z,33.13
2018-07-31T11:55:28.625Z,32.87
2018-07-31T11:57:59.726Z,32.79
2018-07-31T12:00:30.955Z,32.93
2018-07-31T12:03:03.139Z,33.06
2018-07-31T12:05:34.689Z,33.06
2018-07-31T12:08:06.886Z,33.15
2018-07-31T12:10:39.340Z,33.10
2018-07-31T12:13:11.473Z,33.19
2018-07-31T12:15:42.537Z,33.22
2018-07-31T12:18:13.619Z,33.28
2018-07-31T12:20:44.723Z,33.12
2018-07-31T12:23:16.281Z,33.46
2018-07-31T12:25:47.366Z,33.65
2018-07-31T12:28:18.952Z,33.12
2018-07-31T12:30:49.881Z,33.27
2018-07-31T12:33:21.718Z,33.54
2018-07-31T12:35:53.110Z,33.80
2018-07-31T12:38:25.264Z,33.89
2018-07-31T12:40:56.272Z,33.55
2018-07-31T12:43:27.349Z,33.26
2018-07-31T12:45:59.933Z,33.59
2018-07-31T12:48:31.401Z,33.65
2018-07-31T12:51:02.389Z,33.69
2018-07-31T12:53:33.491Z,33.91
2018-07-31T12:56:05.160Z,33.76
2018-07-31T12:58:36.230Z,33.70
2018-07-31T13:01:07.277Z,33.90
2018-07-31T13:03:38.369Z,34.26
2018-07-31T13:06:09.310Z,34.32
2018-07-31T13:08:43.647Z,34.37
2018-07-31T13:11:15.635Z,33.97
2018-07-31T13:13:47.329Z,33.41
2018-07-31T13:16:18.332Z,33.13
2018-07-31T13:18:49.536Z,33.36
2018-07-31T13:21:20.652Z,33.29
2018-07-31T13:23:52.138Z,33.23
2018-07-31T13:26:23.134Z,33.13
2018-07-31T13:28:54.348Z,33.20
2018-07-31T13:31:25.465Z,33.63
2018-07-31T13:33:56.945Z,33.82
2018-07-31T13:36:28.152Z,34.21
2018-07-31T13:38:59.395Z,34.59
2018-07-31T13:41:30.381Z,34.60
2018-07-31T13:44:01.576Z,34.85
2018-07-31T13:46:32.867Z,34.58
2018-07-31T13:49:04.043Z,34.65
2018-07-31T13:51:35.240Z,34.96
2018-07-31T13:54:06.362Z,34.64
2018-07-31T13:56:37.325Z,34.74
2018-07-31T13:59:08.888Z,34.82
2018-07-31T14:01:40.827Z,34.85
2018-07-31T14:04:13.166Z,34.41
2018-07-31T14:06:44.603Z,34.48
2018-07-31T14:09:17.499Z,35.00
2018-07-31T14:11:48.916Z,35.02
2018-07-31T14:14:20.474Z,35.02
2018-07-31T14:16:52.088Z,34.80
2018-07-31T14:19:23.271Z,34.68
2018-07-31T14:21:54.357Z,34.99
2018-07-31T14:24:25.565Z,34.66
2018-07-31T14:26:56.864Z,34.64
2018-07-31T14:29:28.165Z,34.50
2018-07-31T14:31:59.169Z,34.55
2018-07-31T14:34:30.875Z,34.56
2018-07-31T14:37:02.708Z,34.72
2018-07-31T14:39:33.864Z,35.08
2018-07-31T14:42:06.431Z,34.66
2018-07-31T14:44:37.612Z,35.05
2018-07-31T14:47:08.932Z,34.79
2018-07-31T14:49:40.055Z,34.84
2018-07-31T14:52:11.305Z,34.89
2018-07-31T14:54:42.745Z,35.14
2018-07-31T14:57:14.106Z,35.07
2018-07-31T14:59:45.532Z,34.85
2018-07-31T15:02:16.591Z,34.54
2018-07-31T15:04:47.855Z,34.45
2018-07-31T15:07:19.204Z,34.55
2018-07-31T15:09:50.673Z,34.87
2018-07-31T15:12:22.161Z,34.40
2018-07-31T15:14:53.800Z,34.32
2018-07-31T15:17:24.955Z,34.36
2018-07-31T15:19:56.331Z,34.29
2018-07-31T15:22:27.534Z,34.68
2018-07-31T15:24:58.931Z,34.41
2018-07-31T15:27:30.510Z,34.33
2018-07-31T15:30:01.833Z,34.53
2018-07-31T15:32:32.843Z,35.18
2018-07-31T15:35:04.416Z,35.35
2018-07-31T15:37:35.447Z,35.15
2018-07-31T15:40:07.167Z,34.57
2018-07-31T15:42:38.788Z,34.46
2018-07-31T15:45:11.823Z,34.50
2018-07-31T15:47:43.608Z,34.45
2018-07-31T15:50:15.405Z,33.96
2018-07-31T15:52:46.613Z,33.79
2018-07-31T15:55:20.066Z,33.84
2018-07-31T15:57:51.312Z,33.87
2018-07-31T16:00:25.345Z,33.80
2018-07-31T16:02:56.696Z,33.70
2018-07-31T16:05:29.693Z,33.79
2018-07-31T16:08:02.969Z,33.90
2018-07-31T16:10:34.529Z,33.81
2018-07-31T16:13:05.874Z,33.60
2018-07-31T16:15:38.310Z,33.54
2018-07-31T16:18:11.022Z,33.53
2018-07-31T16:20:42.388Z,33.47
2018-07-31T16:23:13.359Z,33.41
2018-07-31T16:25:44.729Z,33.28
2018-07-31T16:28:16.036Z,33.26
2018-07-31T16:30:47.411Z,33.32
2018-07-31T16:33:18.601Z,33.36
2018-07-31T16:35:50.342Z,33.41
2018-07-31T16:38:21.631Z,33.38
2018-07-31T16:40:52.915Z,33.30
2018-07-31T16:43:23.898Z,33.23
2018-07-31T16:45:55.020Z,33.28
2018-07-31T16:48:26.583Z,33.13
2018-07-31T16:50:58.492Z,32.72
2018-07-31T16:53:29.644Z,32.57
2018-07-31T16:56:01.608Z,32.62
2018-07-31T16:58:36.796Z,32.40
2018-07-31T17:01:08.136Z,32.38
2018-07-31T17:03:39.308Z,32.35
2018-07-31T17:06:11.708Z,32.30
2018-07-31T17:08:43.000Z,32.29
2018-07-31T17:11:14.645Z,32.19
2018-07-31T17:13:45.715Z,31.99
2018-07-31T17:16:19.291Z,32.13
2018-07-31T17:18:50.451Z,31.97
2018-07-31T17:21:21.963Z,31.81
2018-07-31T17:23:53.029Z,31.81
2018-07-31T17:26:24.197Z,31.89
2018-07-31T17:28:55.448Z,31.89
2018-07-31T17:31:26.597Z,31.84
2018-07-31T17:33:57.947Z,31.83
2018-07-31T17:36:29.573Z,31.78
2018-07-31T17:39:00.679Z,31.64
2018-07-31T17:41:31.884Z,31.70
2018-07-31T17:44:03.045Z,31.73
2018-07-31T17:46:34.356Z,31.72
2018-07-31T17:49:06.444Z,31.76
2018-07-31T17:51:37.730Z,31.75
2018-07-31T17:54:09.081Z,31.62
2018-07-31T17:56:40.227Z,31.59
2018-07-31T17:59:11.504Z,31.56
2018-07-31T18:01:42.909Z,31.49
2018-07-31T18:04:14.014Z,31.59
2018-07-31T18:06:45.293Z,31.59
2018-07-31T18:09:16.387Z,31.39
2018-07-31T18:11:47.632Z,31.40
2018-07-31T18:14:19.197Z,31.44
2018-07-31T18:16:50.344Z,31.29
2018-07-31T18:19:21.361Z,31.34
2018-07-31T18:21:53.295Z,31.37
2018-07-31T18:24:26.748Z,31.44
2018-07-31T18:27:02.083Z,31.24
2018-07-31T18:29:34.673Z,31.33
2018-07-31T18:32:06.876Z,31.26
2018-07-31T18:34:37.882Z,31.36
2018-07-31T18:37:09.198Z,31.25
2018-07-31T18:39:40.170Z,30.96
2018-07-31T18:42:11.475Z,31.06
2018-07-31T18:44:42.478Z,30.93
2018-07-31T18:47:13.481Z,30.63
2018-07-31T18:49:44.445Z,30.50
2018-07-31T18:52:15.607Z,30.46
2018-07-31T18:54:46.735Z,30.13
2018-07-31T18:57:17.769Z,29.91
2018-07-31T18:59:49.189Z,29.90
2018-07-31T19:02:20.336Z,29.99
2018-07-31T19:04:51.393Z,29.96
2018-07-31T19:07:22.439Z,29.68
2018-07-31T19:09:53.744Z,29.62
2018-07-31T19:12:25.177Z,29.67
2018-07-31T19:14:56.403Z,29.68
2018-07-31T19:17:27.578Z,29.40
2018-07-31T19:19:58.624Z,29.36
2018-07-31T19:22:29.734Z,29.25
2018-07-31T19:25:01.174Z,29.21
2018-07-31T19:27:32.278Z,28.96
2018-07-31T19:30:03.613Z,28.67
2018-07-31T19:32:35.138Z,28.59
2018-07-31T19:35:06.136Z,28.67
2018-07-31T19:37:37.516Z,28.53
2018-07-31T19:40:08.596Z,28.70
2018-07-31T19:42:39.695Z,28.48
2018-07-31T19:45:10.775Z,28.35
2018-07-31T19:47:42.361Z,28.35
2018-07-31T19:50:16.494Z,28.17
2018-07-31T19:52:47.720Z,27.87
2018-07-31T19:55:20.947Z,28.04
2018-07-31T19:57:52.357Z,28.05
2018-07-31T20:00:25.926Z,27.59
2018-07-31T20:02:57.203Z,27.72
2018-07-31T20:05:28.219Z,27.74
2018-07-31T20:07:59.354Z,27.40
2018-07-31T20:10:35.184Z,27.10
2018-07-31T20:13:06.904Z,27.16
2018-07-31T20:15:39.249Z,27.16
2018-07-31T20:18:11.441Z,27.21
2018-07-31T20:20:42.320Z,27.05
2018-07-31T20:23:13.768Z,27.06
2018-07-31T20:25:44.908Z,27.15
2018-07-31T20:28:16.539Z,27.13
2018-07-31T20:30:48.091Z,27.00
2018-07-31T20:33:19.112Z,26.98
2018-07-31T20:35:50.328Z,26.75
2018-07-31T20:38:21.346Z,26.66
2018-07-31T20:40:52.613Z,26.54
2018-07-31T20:43:23.894Z,26.64
2018-07-31T20:45:55.029Z,26.38
2018-07-31T20:48:26.154Z,26.21
2018-07-31T20:50:57.273Z,26.04
2018-07-31T20:53:28.358Z,25.97
2018-07-31T20:55:59.676Z,26.06
2018-07-31T20:58:31.751Z,26.08
2018-07-31T21:01:02.853Z,25.81
2018-07-31T21:03:34.068Z,25.85
2018-07-31T21:06:05.508Z,25.87
2018-07-31T21:08:36.668Z,25.55
2018-07-31T21:11:08.294Z,25.45
2018-07-31T21:13:40.511Z,25.51
2018-07-31T21:16:11.859Z,25.47
2018-07-31T21:18:43.131Z,25.45
2018-07-31T21:21:14.085Z,25.53
2018-07-31T21:23:45.144Z,25.44
2018-07-31T21:26:16.261Z,25.29
2018-07-31T21:28:47.334Z,25.41
2018-07-31T21:31:18.322Z,25.21
2018-07-31T21:33:49.396Z,25.01
2018-07-31T21:36:20.496Z,25.15
2018-07-31T21:38:51.516Z,25.22
2018-07-31T21:41:22.564Z,25.29
2018-07-31T21:43:53.669Z,24.94
2018-07-31T21:46:24.864Z,24.87
2018-07-31T21:48:56.016Z,24.73
2018-07-31T21:51:27.220Z,24.74
2018-07-31T21:53:58.385Z,24.99
2018-07-31T21:56:38.910Z,24.93
2018-07-31T21:59:25.625Z,24.96
2018-07-31T22:01:57.167Z,24.74
2018-07-31T22:04:28.220Z,24.70
2018-07-31T22:06:59.294Z,24.69
2018-07-31T22:09:31.973Z,24.65
2018-07-31T22:12:04.938Z,24.58
2018-07-31T22:14:36.820Z,24.31
2018-07-31T22:17:08.200Z,24.17
2018-07-31T22:19:39.768Z,24.22
2018-07-31T22:22:10.847Z,24.29
2018-07-31T22:24:41.975Z,24.25
2018-07-31T22:27:13.735Z,24.27
2018-07-31T22:29:45.232Z,24.27
2018-07-31T22:32:17.519Z,24.15
2018-07-31T22:34:48.833Z,23.95
2018-07-31T22:37:19.989Z,24.01
2018-07-31T22:39:51.424Z,24.00
2018-07-31T22:42:23.661Z,24.14
2018-07-31T22:44:56.109Z,24.05
2018-07-31T22:47:27.397Z,23.91
2018-07-31T22:49:59.597Z,23.89
2018-07-31T22:52:31.247Z,23.82
2018-07-31T22:55:02.285Z,23.80
2018-07-31T22:57:33.410Z,23.62
2018-07-31T23:00:08.889Z,23.85
2018-07-31T23:02:41.561Z,23.83
2018-07-31T23:05:13.581Z,23.82
2018-07-31T23:07:44.716Z,23.69
2018-07-31T23:10:17.713Z,23.62
2018-07-31T23:12:49.967Z,23.54
2018-07-31T23:15:26.140Z,23.42
2018-07-31T23:17:57.281Z,23.36
2018-07-31T23:20:28.566Z,23.38
2018-07-31T23:22:59.598Z,23.42
2018-07-31T23:25:34.183Z,23.36
2018-07-31T23:28:06.554Z,23.05
2018-07-31T23:30:38.807Z,23.19
2018-07-31T23:33:11.626Z,23.14
2018-07-31T23:35:43.466Z,23.34
2018-07-31T23:38:14.543Z,23.16
2018-07-31T23:40:48.106Z,23.12
2018-07-31T23:43:19.604Z,23.24
2018-07-31T23:45:50.612Z,23.19
2018-07-31T23:48:21.718Z,22.97
2018-07-31T23:50:53.100Z,22.95
2018-07-31T23:53:24.114Z,22.61
2018-07-31T23:55:55.495Z,22.66
2018-07-31T23:58:26.525Z,22.69
